Time;durP1;ratioP1;P1;durP2;ratioP2;P2;SDS_P1;SDS_P2;PMS_P1;PMS_P2;Temp;Humidity;BMP_temperature;BMP_pressure;BME280_temperature;BME280_humidity;BME280_pressure;Samples;Min_cycle;Max_cycle;Signal;HPM_P1;HPM_P2
2024/01/15 00:01:54;;;;;;;120.43;113.10;;;1.30;99.90;;;;;;5077941;28;20060;-74
2024/01/15 00:04:20;;;;;;;62.87;58.93;;;1.30;99.90;;;;;;5076768;28;20040;-74
2024/01/15 00:06:45;;;;;;;36.27;33.00;;;1.30;99.90;;;;;;5056848;28;20029;-74
2024/01/15 00:09:11;;;;;;;38.90;35.93;;;1.30;99.90;;;;;;5077546;28;20044;-74
2024/01/15 00:11:37;;;;;;;43.23;39.80;;;1.20;99.90;;;;;;5054708;28;20410;-74
2024/01/15 00:14:03;;;;;;;55.47;51.83;;;1.10;99.90;;;;;;5059254;28;20039;-74
2024/01/15 00:16:28;;;;;;;90.63;84.67;;;1.10;99.90;;;;;;5061394;28;20510;-74
2024/01/15 00:18:54;;;;;;;158.17;147.67;;;1.10;99.90;;;;;;5062141;28;20287;-74
2024/01/15 00:21:20;;;;;;;89.37;83.90;;;1.10;99.90;;;;;;5067287;28;20375;-74
2024/01/15 00:23:46;;;;;;;104.10;96.53;;;1.30;99.90;;;;;;5088650;28;20028;-74
2024/01/15 00:26:12;;;;;;;164.07;152.93;;;1.40;99.90;;;;;;5093580;28;20043;-74
2024/01/15 00:28:38;;;;;;;136.25;127.35;;;1.50;99.90;;;;;;5086554;28;20046;-74
2024/01/15 00:31:05;;;;;;;220.23;202.57;;;1.60;99.90;;;;;;5086688;28;20040;-74
2024/01/15 00:33:31;;;;;;;57.67;52.83;;;1.60;99.90;;;;;;5081733;28;20520;-74
2024/01/15 00:35:57;;;;;;;251.70;233.97;;;1.60;99.90;;;;;;5082105;28;20052;-74
2024/01/15 00:38:22;;;;;;;234.90;218.33;;;1.60;99.90;;;;;;5069137;28;20282;-74
2024/01/15 00:40:48;;;;;;;52.93;49.40;;;1.60;99.90;;;;;;5086194;28;20032;-74
2024/01/15 00:43:14;;;;;;;66.50;62.37;;;1.60;99.90;;;;;;5074743;28;20040;-74
2024/01/15 00:45:41;;;;;;;57.38;53.13;;;1.60;99.90;;;;;;5083281;28;20285;-74
2024/01/15 00:48:06;;;;;;;188.00;174.93;;;1.60;99.90;;;;;;5063469;28;20105;-74
2024/01/15 00:50:32;;;;;;;227.00;211.50;;;1.60;99.90;;;;;;5068693;28;20036;-74
2024/01/15 00:52:58;;;;;;;157.43;146.87;;;1.70;99.90;;;;;;5086055;28;20466;-73
2024/01/15 00:55:23;;;;;;;235.70;219.43;;;1.80;99.90;;;;;;5064774;28;20118;-74
2024/01/15 00:57:49;;;;;;;128.07;120.83;;;1.70;99.90;;;;;;5060134;28;20068;-74
2024/01/15 01:00:15;;;;;;;210.77;196.90;;;1.50;99.90;;;;;;5064421;28;20383;-74
2024/01/15 01:02:41;;;;;;;157.80;147.33;;;1.30;99.90;;;;;;5086196;28;20085;-74
2024/01/15 01:05:07;;;;;;;71.00;66.55;;;1.10;99.90;;;;;;5090933;28;20617;-74
2024/01/15 01:07:33;;;;;;;96.37;90.57;;;1.00;99.90;;;;;;5086407;28;20081;-74
2024/01/15 01:09:58;;;;;;;449.30;412.40;;;0.90;99.90;;;;;;5066536;28;20048;-74
2024/01/15 01:12:24;;;;;;;110.80;103.70;;;0.90;99.90;;;;;;5084640;28;20040;-74
2024/01/15 01:14:50;;;;;;;310.77;285.47;;;0.90;99.90;;;;;;5067214;28;20412;-73
2024/01/15 01:17:15;;;;;;;194.27;181.03;;;0.90;99.90;;;;;;5068608;28;20060;-73
2024/01/15 01:19:41;;;;;;;91.50;86.30;;;0.90;99.90;;;;;;5068618;28;20036;-74
2024/01/15 01:22:07;;;;;;;111.73;104.73;;;1.00;99.90;;;;;;5067511;28;20486;-73
2024/01/15 01:24:33;;;;;;;81.13;75.73;;;1.10;99.90;;;;;;5083426;28;20587;-73
2024/01/15 01:26:58;;;;;;;67.20;62.60;;;1.10;99.90;;;;;;5062369;28;20107;-74
2024/01/15 01:29:26;;;;;;;183.03;170.23;;;1.20;99.90;;;;;;5080074;28;20076;-74
2024/01/15 01:31:51;;;;;;;121.35;113.25;;;1.20;99.90;;;;;;5061119;28;20043;-74
2024/01/15 01:34:17;;;;;;;148.10;138.70;;;1.20;99.90;;;;;;5082634;28;20448;-73
2024/01/15 01:36:43;;;;;;;345.13;314.83;;;1.30;99.90;;;;;;5072718;28;20036;-73
2024/01/15 01:39:09;;;;;;;130.07;121.97;;;1.30;99.90;;;;;;5071316;28;20156;-74
2024/01/15 01:41:35;;;;;;;456.83;415.08;;;1.30;99.90;;;;;;5081792;28;20559;-73
2024/01/15 01:44:01;;;;;;;301.73;278.70;;;1.30;99.90;;;;;;5081545;28;20040;-73
2024/01/15 01:46:28;;;;;;;419.37;381.53;;;1.30;99.90;;;;;;5076845;28;20055;-73
2024/01/15 01:48:55;;;;;;;206.20;191.23;;;1.40;99.90;;;;;;5084416;28;20040;-73
2024/01/15 01:51:24;;;;;;;146.18;136.80;;;1.40;99.90;;;;;;5077853;28;20441;-73
2024/01/15 01:53:50;;;;;;;225.93;211.20;;;1.40;99.90;;;;;;5076734;28;20081;-73
2024/01/15 01:56:17;;;;;;;227.75;210.32;;;1.40;99.90;;;;;;5080764;28;20119;-73
2024/01/15 01:58:44;;;;;;;155.98;145.20;;;1.40;99.90;;;;;;5088803;28;20044;-73
2024/01/15 02:01:12;;;;;;;120.50;112.68;;;1.40;99.90;;;;;;5081688;28;20044;-73
2024/01/15 02:03:40;;;;;;;68.43;63.80;;;1.40;99.90;;;;;;5084880;28;20032;-73
2024/01/15 02:06:06;;;;;;;46.08;42.80;;;1.30;99.90;;;;;;5075865;28;20040;-73
2024/01/15 02:08:32;;;;;;;121.70;113.88;;;1.30;99.90;;;;;;5085022;28;20040;-73
2024/01/15 02:10:57;;;;;;;129.57;120.90;;;1.10;99.90;;;;;;5088806;28;20046;-73
2024/01/15 02:13:23;;;;;;;120.87;113.27;;;1.10;99.90;;;;;;5084976;28;20036;-73
2024/01/15 02:15:49;;;;;;;122.43;115.17;;;1.10;99.90;;;;;;5059633;28;20064;-73
2024/01/15 02:18:14;;;;;;;69.63;65.37;;;1.20;99.90;;;;;;5065877;28;20394;-73
2024/01/15 02:20:40;;;;;;;101.83;95.43;;;1.30;99.90;;;;;;5090323;28;20532;-73
2024/01/15 02:23:15;;;;;;;78.73;74.17;;;1.30;99.90;;;;;;5079487;28;20539;-73
2024/01/15 02:25:43;;;;;;;;;;;1.30;99.90;;;;;;5068743;28;20406;-73
2024/01/15 02:28:11;;;;;;;56.55;52.88;;;1.30;99.90;;;;;;5080003;28;19920;-73
2024/01/15 02:30:41;;;;;;;67.38;62.80;;;1.30;99.90;;;;;;5090288;28;20040;-73
2024/01/15 02:33:07;;;;;;;79.85;74.38;;;1.30;99.90;;;;;;5081891;28;20040;-73
2024/01/15 02:35:36;;;;;;;64.57;60.10;;;1.30;99.90;;;;;;5086399;28;20123;-73
2024/01/15 02:38:02;;;;;;;151.88;140.57;;;1.30;99.90;;;;;;5086036;28;20044;-73
2024/01/15 02:40:28;;;;;;;154.85;144.90;;;1.30;99.90;;;;;;5061172;28;20066;-73
2024/01/15 02:42:54;;;;;;;55.43;52.03;;;1.30;99.90;;;;;;5056560;28;20044;-73
2024/01/15 02:45:20;;;;;;;59.10;54.90;;;1.40;99.90;;;;;;5074665;28;20491;-73
2024/01/15 02:47:46;;;;;;;125.25;116.88;;;1.50;99.90;;;;;;5070899;28;20526;-73
2024/01/15 02:50:12;;;;;;;98.53;92.63;;;1.60;99.90;;;;;;5078118;28;20037;-73
2024/01/15 02:52:37;;;;;;;206.90;193.47;;;1.60;99.90;;;;;;5086635;28;20078;-73
2024/01/15 02:55:04;;;;;;;109.37;102.83;;;1.60;99.90;;;;;;5078370;28;20059;-73
2024/01/15 02:57:29;;;;;;;250.90;232.90;;;1.60;99.90;;;;;;5076134;28;20095;-73
2024/01/15 02:59:55;;;;;;;84.93;80.23;;;1.60;99.90;;;;;;5061402;28;20098;-73
2024/01/15 03:02:21;;;;;;;129.20;121.67;;;1.60;99.90;;;;;;5062190;28;20028;-73
2024/01/15 03:04:47;;;;;;;145.30;136.13;;;1.60;99.90;;;;;;5090514;28;20113;-73
2024/01/15 03:07:13;;;;;;;58.73;55.27;;;1.60;99.90;;;;;;5060020;28;20045;-73
2024/01/15 03:09:38;;;;;;;38.57;36.17;;;1.50;99.90;;;;;;5082658;28;20028;-73
2024/01/15 03:12:04;;;;;;;49.77;46.77;;;1.40;99.90;;;;;;5056831;28;20855;-73
2024/01/15 03:14:30;;;;;;;102.63;96.45;;;1.30;99.90;;;;;;5070922;28;20494;-73
2024/01/15 03:16:56;;;;;;;40.57;37.90;;;1.20;99.90;;;;;;5064885;28;20064;-73
2024/01/15 03:19:22;;;;;;;61.73;57.67;;;1.10;99.90;;;;;;5063372;28;20074;-74
2024/01/15 03:21:47;;;;;;;180.47;167.97;;;1.10;99.90;;;;;;5083589;28;20293;-74
2024/01/15 03:24:13;;;;;;;60.40;56.30;;;1.00;99.90;;;;;;5085566;28;20088;-73
2024/01/15 03:26:39;;;;;;;54.00;50.70;;;1.00;99.90;;;;;;5071610;28;20036;-73
2024/01/15 03:29:05;;;;;;;101.33;95.33;;;1.10;99.90;;;;;;5067172;28;20440;-73
2024/01/15 03:31:30;;;;;;;139.27;130.07;;;1.10;99.90;;;;;;5077793;28;20279;-73
2024/01/15 03:33:56;;;;;;;167.23;156.57;;;1.20;99.90;;;;;;5066795;28;20056;-73
2024/01/15 03:36:22;;;;;;;251.80;233.20;;;1.20;99.90;;;;;;5069277;28;20036;-73
2024/01/15 03:38:47;;;;;;;218.00;202.93;;;1.30;99.90;;;;;;5089270;28;20032;-73
2024/01/15 03:41:13;;;;;;;57.20;53.37;;;1.40;99.90;;;;;;5080165;28;20101;-74
2024/01/15 03:43:39;;;;;;;202.93;189.43;;;1.50;99.90;;;;;;5079160;28;20040;-73
2024/01/15 03:46:05;;;;;;;62.45;58.90;;;1.50;99.90;;;;;;5055501;28;20039;-74
2024/01/15 03:48:31;;;;;;;163.15;152.32;;;1.60;99.90;;;;;;5081951;28;20439;-73
2024/01/15 03:50:57;;;;;;;113.17;105.60;;;1.60;99.90;;;;;;5061038;28;20105;-73
2024/01/15 03:53:23;;;;;;;98.80;92.90;;;1.60;99.90;;;;;;5079316;28;20510;-73
2024/01/15 03:55:49;;;;;;;213.57;199.77;;;1.60;99.90;;;;;;5071210;28;20038;-73
2024/01/15 03:58:15;;;;;;;84.03;78.85;;;1.60;99.90;;;;;;5056047;28;20045;-73
2024/01/15 04:00:42;;;;;;;137.03;128.33;;;1.60;99.90;;;;;;5086177;28;20532;-73
2024/01/15 04:03:07;;;;;;;84.65;79.30;;;1.50;99.90;;;;;;5075223;28;20041;-73
2024/01/15 04:05:33;;;;;;;82.20;77.13;;;1.50;99.90;;;;;;5065774;28;20043;-73
2024/01/15 04:07:59;;;;;;;123.90;116.67;;;1.40;99.90;;;;;;5063572;28;20040;-73
2024/01/15 04:10:24;;;;;;;96.93;91.13;;;1.40;99.90;;;;;;5078072;28;20076;-73
2024/01/15 04:12:50;;;;;;;165.90;155.47;;;1.30;99.90;;;;;;5075624;28;20036;-74
2024/01/15 04:15:16;;;;;;;78.73;74.10;;;1.30;99.90;;;;;;5072959;28;20041;-73
2024/01/15 04:17:42;;;;;;;77.80;72.97;;;1.20;99.90;;;;;;5054108;28;20051;-74
2024/01/15 04:20:08;;;;;;;76.63;71.87;;;1.10;99.90;;;;;;5075275;28;20044;-74
2024/01/15 04:22:37;;;;;;;85.45;80.05;;;1.00;99.90;;;;;;5075092;28;20293;-73
2024/01/15 04:25:03;;;;;;;69.30;65.25;;;0.90;99.90;;;;;;5082440;28;20078;-73
2024/01/15 04:27:29;;;;;;;39.35;36.60;;;0.80;99.90;;;;;;5063461;28;20094;-74
2024/01/15 04:29:54;;;;;;;70.63;66.27;;;0.70;99.90;;;;;;5060484;28;20048;-74
2024/01/15 04:32:20;;;;;;;22.50;20.47;;;0.60;99.90;;;;;;5071116;28;20044;-74
2024/01/15 04:34:46;;;;;;;34.50;31.60;;;0.50;99.90;;;;;;5075046;28;20044;-74
2024/01/15 04:37:13;;;;;;;49.27;46.17;;;0.50;99.90;;;;;;5067151;28;20160;-73
2024/01/15 04:39:38;;;;;;;47.10;42.95;;;0.50;99.90;;;;;;5077712;28;20496;-74
2024/01/15 04:42:04;;;;;;;40.90;37.87;;;0.50;99.90;;;;;;5066927;28;20036;-74
2024/01/15 04:44:30;;;;;;;40.87;37.87;;;0.50;99.90;;;;;;5062422;28;20420;-73
2024/01/15 04:46:56;;;;;;;36.97;33.37;;;0.60;99.90;;;;;;5080345;28;20040;-73
2024/01/15 04:49:22;;;;;;;54.40;50.80;;;0.60;99.90;;;;;;5059464;28;20062;-74
2024/01/15 04:51:47;;;;;;;72.80;67.77;;;0.60;99.90;;;;;;5082124;28;20122;-73
2024/01/15 04:54:17;;;;;;;91.53;86.17;;;0.60;99.90;;;;;;5074702;28;20044;-73
2024/01/15 04:56:44;;;;;;;40.85;37.47;;;0.50;99.90;;;;;;5077362;28;20506;-74
2024/01/15 04:59:10;;;;;;;54.97;51.45;;;0.50;99.90;;;;;;5055578;28;20037;-74
2024/01/15 05:01:35;;;;;;;34.75;31.85;;;0.40;99.90;;;;;;5080557;28;20036;-74
2024/01/15 05:04:01;;;;;;;48.03;44.40;;;0.30;99.90;;;;;;5074606;28;20044;-74
2024/01/15 05:06:27;;;;;;;50.13;46.70;;;0.30;99.90;;;;;;5073684;28;20119;-73
2024/01/15 05:08:52;;;;;;;24.87;19.80;;;0.20;99.90;;;;;;5082649;28;20077;-73
2024/01/15 05:11:18;;;;;;;60.53;56.77;;;0.20;99.90;;;;;;5079453;28;20428;-74
2024/01/15 05:13:44;;;;;;;30.33;26.97;;;0.20;99.90;;;;;;5074687;28;20543;-74
2024/01/15 05:16:10;;;;;;;27.53;25.30;;;0.20;99.90;;;;;;5055708;28;20399;-73
2024/01/15 05:18:37;;;;;;;42.95;39.17;;;0.10;99.90;;;;;;5083270;28;20059;-73
2024/01/15 05:21:03;;;;;;;117.18;109.85;;;0.10;99.90;;;;;;5085037;28;20040;-73
2024/01/15 05:23:31;;;;;;;50.75;46.53;;;0.10;99.90;;;;;;5085438;28;20499;-73
2024/01/15 05:25:57;;;;;;;42.10;38.72;;;0.20;99.90;;;;;;5082699;28;20042;-74
2024/01/15 05:28:22;;;;;;;54.13;50.27;;;0.20;99.90;;;;;;5072846;28;20489;-74
2024/01/15 05:30:50;;;;;;;100.30;93.50;;;0.30;99.90;;;;;;5064530;28;20132;-74
2024/01/15 05:33:16;;;;;;;78.03;71.65;;;0.40;99.90;;;;;;5065656;28;20489;-73
2024/01/15 05:35:42;;;;;;;162.57;152.48;;;0.50;99.90;;;;;;5086846;28;20044;-74
2024/01/15 05:38:08;;;;;;;227.50;211.10;;;0.60;99.90;;;;;;5076630;28;20123;-74
2024/01/15 05:40:33;;;;;;;135.73;126.07;;;0.70;99.90;;;;;;5089059;28;20043;-74
2024/01/15 05:42:59;;;;;;;200.37;187.03;;;0.70;99.90;;;;;;5059713;28;20098;-74
2024/01/15 05:45:26;;;;;;;224.30;208.80;;;0.70;99.90;;;;;;5082477;28;20032;-73
2024/01/15 05:47:52;;;;;;;108.82;101.43;;;0.80;99.90;;;;;;5084615;28;20093;-73
2024/01/15 05:50:18;;;;;;;66.90;62.50;;;0.80;99.90;;;;;;5085126;28;20048;-74
2024/01/15 05:52:44;;;;;;;56.30;51.93;;;0.80;99.90;;;;;;5078830;28;20032;-74
2024/01/15 05:55:09;;;;;;;42.37;39.23;;;0.70;99.90;;;;;;5076352;28;20495;-74
2024/01/15 05:57:37;;;;;;;64.40;59.97;;;0.70;99.90;;;;;;5056790;28;20044;-74
2024/01/15 06:00:04;;;;;;;34.90;31.90;;;0.50;99.90;;;;;;5057280;28;20314;-74
2024/01/15 06:02:29;;;;;;;109.22;102.10;;;0.50;99.90;;;;;;5062589;28;20391;-74
2024/01/15 06:04:55;;;;;;;116.87;108.80;;;0.40;99.90;;;;;;5085386;28;20039;-73
2024/01/15 06:07:22;;;;;;;75.03;70.40;;;0.40;99.90;;;;;;5055983;28;20044;-74
2024/01/15 06:09:48;;;;;;;63.53;59.47;;;0.40;99.90;;;;;;5068933;28;20418;-73
2024/01/15 06:12:14;;;;;;;265.07;238.50;;;0.50;99.90;;;;;;5085157;28;20041;-73
2024/01/15 06:14:41;;;;;;;248.30;230.13;;;0.60;99.90;;;;;;5057287;28;20051;-73
2024/01/15 06:17:07;;;;;;;271.13;249.15;;;0.80;99.90;;;;;;5073350;28;20125;-74
2024/01/15 06:19:33;;;;;;;266.00;246.30;;;1.00;99.90;;;;;;5077144;28;20056;-73
2024/01/15 06:21:59;;;;;;;342.67;312.80;;;1.00;99.90;;;;;;5080711;28;20396;-73
2024/01/15 06:24:24;;;;;;;184.77;172.83;;;1.10;99.90;;;;;;5074289;28;20036;-73
2024/01/15 06:26:50;;;;;;;225.13;210.07;;;1.00;99.90;;;;;;5088671;28;20036;-73
2024/01/15 06:29:16;;;;;;;116.37;108.60;;;1.00;99.90;;;;;;5062096;28;20042;-73
2024/01/15 06:31:42;;;;;;;99.47;93.50;;;1.00;99.90;;;;;;5057879;28;20033;-73
2024/01/15 06:34:07;;;;;;;78.13;73.37;;;0.80;99.90;;;;;;5060418;28;20036;-73
2024/01/15 06:36:33;;;;;;;193.13;180.73;;;0.80;99.90;;;;;;5076880;28;20131;-73
2024/01/15 06:38:58;;;;;;;65.77;61.87;;;0.70;99.90;;;;;;5056996;28;20029;-73
2024/01/15 06:41:25;;;;;;;119.17;111.47;;;0.60;99.90;;;;;;5056292;28;20101;-73
2024/01/15 06:43:51;;;;;;;135.40;126.95;;;0.50;99.90;;;;;;5085630;28;20498;-74
2024/01/15 06:46:23;;;;;;;77.87;72.90;;;0.50;99.90;;;;;;5063334;28;20098;-73
2024/01/15 06:48:49;;;;;;;25.98;23.70;;;0.40;99.90;;;;;;5072425;28;20040;-73
2024/01/15 06:51:16;;;;;;;25.67;23.40;;;0.30;99.90;;;;;;5068136;28;20040;-73
2024/01/15 06:53:41;;;;;;;31.88;28.73;;;0.20;99.90;;;;;;5067792;28;20047;-73
2024/01/15 06:56:07;;;;;;;37.23;34.80;;;0.00;99.90;;;;;;5064473;28;20537;-73
2024/01/15 06:58:33;;;;;;;35.07;32.10;;;-0.10;99.90;;;;;;5074543;28;20101;-73
2024/01/15 07:00:59;;;;;;;28.53;25.50;;;-0.20;99.90;;;;;;5076902;28;20837;-73
2024/01/15 07:03:25;;;;;;;21.00;18.92;;;-0.20;99.90;;;;;;5077862;28;20512;-74
2024/01/15 07:05:51;;;;;;;35.03;31.80;;;-0.30;99.90;;;;;;5079962;28;20041;-73
2024/01/15 07:08:17;;;;;;;26.30;23.60;;;-0.30;99.90;;;;;;5076491;28;20544;-73
2024/01/15 07:10:42;;;;;;;31.63;27.00;;;-0.20;99.90;;;;;;5080390;28;20130;-74
2024/01/15 07:13:09;;;;;;;66.97;62.37;;;-0.30;99.90;;;;;;5054922;28;20040;-73
2024/01/15 07:15:34;;;;;;;90.55;83.95;;;-0.30;99.90;;;;;;5071566;28;20040;-74
2024/01/15 07:18:00;;;;;;;36.13;32.47;;;-0.20;99.90;;;;;;5071231;28;20124;-74
2024/01/15 07:20:26;;;;;;;70.80;65.27;;;-0.10;99.90;;;;;;5082914;28;20044;-74
2024/01/15 07:22:51;;;;;;;58.13;54.10;;;-0.10;99.90;;;;;;5058910;28;20112;-74
2024/01/15 07:25:17;;;;;;;30.20;27.37;;;0.00;99.90;;;;;;5071277;28;20415;-74
2024/01/15 07:27:44;;;;;;;67.50;63.20;;;0.10;99.90;;;;;;5080323;28;20089;-74
2024/01/15 07:30:13;;;;;;;30.30;27.50;;;0.10;99.90;;;;;;5059338;28;20044;-74
2024/01/15 07:32:40;;;;;;;93.65;87.95;;;0.20;99.90;;;;;;5066412;28;20040;-74
2024/01/15 07:35:06;;;;;;;175.50;163.93;;;0.30;99.90;;;;;;5056283;28;20071;-74
2024/01/15 07:37:32;;;;;;;69.90;65.27;;;0.40;99.90;;;;;;5057595;28;20467;-74
2024/01/15 07:39:58;;;;;;;108.73;101.97;;;0.40;99.90;;;;;;5074667;28;20465;-74
2024/01/15 07:42:23;;;;;;;198.57;185.00;;;0.50;99.90;;;;;;5063172;28;20040;-74
2024/01/15 07:44:51;;;;;;;111.57;104.23;;;0.50;99.90;;;;;;5070885;28;20036;-74
2024/01/15 07:47:17;;;;;;;63.38;59.85;;;0.50;99.90;;;;;;5086642;28;20123;-75
2024/01/15 07:49:43;;;;;;;129.10;119.70;;;0.60;99.90;;;;;;5081965;28;20051;-74
2024/01/15 07:52:10;;;;;;;88.57;83.43;;;0.60;99.90;;;;;;5083978;28;20580;-74
2024/01/15 07:54:35;;;;;;;47.92;44.67;;;0.60;99.90;;;;;;5085897;28;20032;-74
2024/01/15 07:57:05;;;;;;;219.33;204.70;;;0.60;99.90;;;;;;5087540;28;20071;-74
2024/01/15 07:59:31;;;;;;;119.05;111.82;;;0.50;99.90;;;;;;5068366;28;20101;-74
2024/01/15 08:01:59;;;;;;;130.07;122.57;;;0.50;99.90;;;;;;5077141;28;20040;-74
2024/01/15 08:04:25;;;;;;;122.97;115.18;;;0.40;99.90;;;;;;5070817;28;20036;-74
2024/01/15 08:06:51;;;;;;;79.43;74.53;;;0.40;99.90;;;;;;5078933;28;20157;-74
2024/01/15 08:09:16;;;;;;;112.78;106.25;;;0.40;99.90;;;;;;5059532;28;20283;-75
2024/01/15 08:11:43;;;;;;;82.57;77.63;;;0.30;99.90;;;;;;5074956;28;20051;-74
2024/01/15 08:14:09;;;;;;;50.55;47.38;;;0.30;99.90;;;;;;5070958;28;20402;-74
2024/01/15 08:16:36;;;;;;;38.10;35.85;;;0.20;99.90;;;;;;5080873;28;20106;-75
2024/01/15 08:19:02;;;;;;;58.83;55.28;;;0.20;99.90;;;;;;5069447;28;20489;-75
2024/01/15 08:21:31;;;;;;;23.30;21.57;;;0.20;99.90;;;;;;5085765;28;20047;-75
2024/01/15 08:23:58;;;;;;;58.92;55.38;;;0.20;99.90;;;;;;5083723;28;20059;-75
2024/01/15 08:26:23;;;;;;;20.88;18.92;;;0.20;99.90;;;;;;5060187;28;20041;-75
2024/01/15 08:28:49;;;;;;;33.53;31.20;;;0.20;99.90;;;;;;5085932;28;20413;-75
2024/01/15 08:31:15;;;;;;;29.40;27.23;;;0.30;99.90;;;;;;5086499;28;20278;-75
2024/01/15 08:33:41;;;;;;;42.37;39.77;;;0.30;99.90;;;;;;5083023;28;20042;-75
2024/01/15 08:36:06;;;;;;;68.17;64.07;;;0.30;99.90;;;;;;5079660;28;20136;-75
2024/01/15 08:38:32;;;;;;;121.97;114.17;;;0.30;99.90;;;;;;5068868;28;20039;-75
2024/01/15 08:41:00;;;;;;;173.57;161.63;;;0.30;99.90;;;;;;5093620;28;20043;-74
2024/01/15 08:43:26;;;;;;;101.18;94.80;;;0.40;99.90;;;;;;5073883;28;20038;-75
2024/01/15 08:45:52;;;;;;;81.22;75.85;;;0.50;99.90;;;;;;5061666;28;20089;-75
2024/01/15 08:48:18;;;;;;;157.63;147.38;;;0.60;99.90;;;;;;5080024;28;20044;-75
2024/01/15 08:50:47;;;;;;;97.77;90.77;;;0.60;99.90;;;;;;5068830;28;20040;-75
2024/01/15 08:53:13;;;;;;;63.03;58.92;;;0.70;99.90;;;;;;5081272;28;20040;-75
2024/01/15 08:55:39;;;;;;;51.35;48.55;;;0.80;99.90;;;;;;5067058;28;20039;-75
2024/01/15 08:58:06;;;;;;;32.27;30.10;;;0.90;99.90;;;;;;5064253;28;20102;-76
2024/01/15 09:00:31;;;;;;;62.33;58.45;;;0.90;99.90;;;;;;5061849;28;20094;-75
2024/01/15 09:02:57;;;;;;;38.33;35.60;;;1.00;99.90;;;;;;5073099;28;20037;-75
2024/01/15 09:05:23;;;;;;;51.67;48.37;;;1.00;99.90;;;;;;5073140;28;20124;-75
2024/01/15 09:07:51;;;;;;;61.90;57.73;;;1.00;99.90;;;;;;5087540;28;20123;-75
2024/01/15 09:10:17;;;;;;;77.97;73.05;;;1.10;99.90;;;;;;5067314;28;20040;-75
2024/01/15 09:12:42;;;;;;;24.70;22.80;;;1.10;99.90;;;;;;5079683;28;20460;-75
2024/01/15 09:15:08;;;;;;;59.70;56.20;;;1.20;99.90;;;;;;5073857;28;20044;-75
2024/01/15 09:17:34;;;;;;;55.60;52.17;;;1.20;99.90;;;;;;5068998;28;20048;-75
2024/01/15 09:20:00;;;;;;;90.30;84.77;;;1.40;99.90;;;;;;5086181;28;20389;-75
2024/01/15 09:22:26;;;;;;;37.60;34.53;;;1.40;99.90;;;;;;5075702;28;20074;-75
2024/01/15 09:24:52;;;;;;;78.53;74.07;;;1.40;99.90;;;;;;5074474;28;20040;-75
2024/01/15 09:27:18;;;;;;;68.90;64.73;;;1.30;99.90;;;;;;5079932;28;20094;-74
2024/01/15 09:29:45;;;;;;;70.87;66.73;;;1.20;99.90;;;;;;5075236;28;20290;-75
2024/01/15 09:32:12;;;;;;;47.35;44.25;;;1.20;99.90;;;;;;5068939;28;20037;-74
2024/01/15 09:34:38;;;;;;;191.80;179.40;;;1.30;99.90;;;;;;5084582;28;20071;-74
2024/01/15 09:37:04;;;;;;;407.70;367.70;;;1.30;99.90;;;;;;5078902;28;20466;-74
2024/01/15 09:39:30;;;;;;;101.87;95.87;;;1.50;99.90;;;;;;5074794;28;20036;-74
2024/01/15 09:41:57;;;;;;;232.43;216.18;;;1.50;99.90;;;;;;5059539;28;20044;-74
2024/01/15 09:44:23;;;;;;;211.55;197.20;;;1.50;99.90;;;;;;5074038;28;20093;-74
2024/01/15 09:46:50;;;;;;;283.30;263.80;;;1.50;99.90;;;;;;5084162;28;20040;-74
2024/01/15 09:49:19;;;;;;;178.13;167.02;;;1.50;99.90;;;;;;5058977;28;20055;-74
2024/01/15 09:51:45;;;;;;;128.65;121.18;;;1.50;99.90;;;;;;5076819;28;20553;-74
2024/01/15 09:54:13;;;;;;;170.87;160.43;;;1.60;99.90;;;;;;5079484;28;20124;-74
2024/01/15 09:56:39;;;;;;;292.27;269.40;;;1.80;99.90;;;;;;5056531;28;20086;-73
2024/01/15 09:59:06;;;;;;;285.52;263.13;;;2.00;99.90;;;;;;5080013;28;20599;-73
2024/01/15 10:01:32;;;;;;;119.63;112.63;;;2.20;99.90;;;;;;5063745;28;20048;-73
2024/01/15 10:03:58;;;;;;;427.13;393.52;;;2.30;99.90;;;;;;5072758;28;20037;-74
2024/01/15 10:06:27;;;;;;;250.88;234.52;;;2.30;99.90;;;;;;5058294;28;20044;-75
2024/01/15 10:08:55;;;;;;;281.25;261.98;;;2.40;99.90;;;;;;5084059;28;20036;-73
2024/01/15 10:11:21;;;;;;;291.27;271.25;;;2.40;99.90;;;;;;5075219;28;20126;-75
2024/01/15 10:13:50;;;;;;;500.02;458.83;;;2.40;99.90;;;;;;5079078;28;20112;-73
2024/01/15 10:16:16;;;;;;;166.23;156.10;;;2.40;99.90;;;;;;5080406;28;20065;-73
2024/01/15 10:18:42;;;;;;;115.57;109.47;;;2.30;99.90;;;;;;5079610;28;20059;-73
2024/01/15 10:21:08;;;;;;;348.33;324.43;;;2.30;99.90;;;;;;5082194;28;20047;-73
2024/01/15 10:23:33;;;;;;;255.97;239.53;;;2.20;99.90;;;;;;5073018;28;20086;-74
2024/01/15 10:26:00;;;;;;;110.83;104.50;;;2.00;99.90;;;;;;5066384;28;20039;-73
2024/01/15 10:28:30;;;;;;;147.55;139.38;;;1.80;99.90;;;;;;5060335;28;20471;-72
2024/01/15 10:30:57;;;;;;;99.38;93.85;;;1.60;99.90;;;;;;5076922;28;20583;-73
2024/01/15 10:33:27;;;;;;;200.05;187.38;;;1.50;99.90;;;;;;5066449;28;20133;-73
2024/01/15 10:35:57;;;;;;;177.27;166.35;;;1.40;99.90;;;;;;5059102;28;20050;-73
2024/01/15 10:38:24;;;;;;;185.68;174.48;;;1.30;99.90;;;;;;5077326;28;20409;-73
2024/01/15 10:40:54;;;;;;;54.00;50.85;;;1.30;99.90;;;;;;5061167;28;20043;-73
2024/01/15 10:43:21;;;;;;;88.18;83.55;;;1.30;99.90;;;;;;5071464;28;20478;-73
2024/01/15 10:45:48;;;;;;;67.88;64.10;;;1.30;99.90;;;;;;5083372;28;20073;-73
2024/01/15 10:48:15;;;;;;;194.27;182.40;;;1.40;99.90;;;;;;5076339;28;20115;-73
2024/01/15 10:50:41;;;;;;;227.63;212.20;;;1.40;99.90;;;;;;5072815;28;20568;-73
2024/01/15 10:53:12;;;;;;;162.23;152.53;;;1.40;99.90;;;;;;5076122;28;20083;-73
2024/01/15 10:55:39;;;;;;;228.10;212.90;;;1.40;99.90;;;;;;5074538;28;20052;-73
2024/01/15 10:58:07;;;;;;;115.13;108.50;;;1.40;99.90;;;;;;5072912;28;20441;-73
2024/01/15 11:00:37;;;;;;;179.00;167.73;;;1.50;99.90;;;;;;5079376;28;20464;-73
2024/01/15 11:03:08;;;;;;;143.40;134.73;;;1.60;99.90;;;;;;5075644;28;20040;-73
2024/01/15 11:05:41;;;;;;;132.43;124.18;;;1.80;99.90;;;;;;5070983;28;20040;-73
2024/01/15 11:08:07;;;;;;;172.25;162.77;;;2.00;99.90;;;;;;5072650;28;20059;-73
2024/01/15 11:10:41;;;;;;;203.02;189.15;;;2.10;99.90;;;;;;5056351;28;20501;-73
2024/01/15 11:13:22;;;;;;;245.77;229.35;;;2.20;99.90;;;;;;5072589;28;20051;-73
2024/01/15 11:15:55;;;;;;;166.77;156.85;;;2.20;99.90;;;;;;5070776;28;20124;-74
2024/01/15 11:18:22;;;;;;;179.00;166.45;;;2.20;99.90;;;;;;5069524;28;20121;-73
2024/01/15 11:21:13;;;;;;;143.57;135.18;;;2.20;99.90;;;;;;5074184;28;20063;-74
2024/01/15 11:23:56;;;;;;;190.13;176.95;;;2.10;99.90;;;;;;5071600;28;20398;-74
2024/01/15 11:26:44;;;;;;;315.05;290.50;;;1.90;99.90;;;;;;5073328;28;20835;-75
2024/01/15 11:29:34;;;;;;;109.40;102.60;;;1.70;99.90;;;;;;5070136;28;20036;-74
2024/01/15 11:32:07;;;;;;;111.75;104.28;;;1.50;99.90;;;;;;5070790;28;20032;-74
2024/01/15 11:34:52;;;;;;;143.30;134.07;;;1.40;99.90;;;;;;5074163;28;20123;-75
2024/01/15 11:37:19;;;;;;;174.50;163.15;;;1.30;99.90;;;;;;5076829;28;20039;-75
2024/01/15 11:39:48;;;;;;;143.75;134.25;;;1.20;99.90;;;;;;5072176;28;20048;-75
2024/01/15 11:42:15;;;;;;;60.17;56.50;;;1.00;99.90;;;;;;5076714;28;20036;-75
2024/01/15 11:44:41;;;;;;;147.07;137.40;;;0.80;99.90;;;;;;5061815;28;20525;-75
2024/01/15 11:47:13;;;;;;;87.50;82.65;;;0.70;99.90;;;;;;5076077;28;20047;-75
2024/01/15 11:50:05;;;;;;;158.50;148.52;;;0.70;99.90;;;;;;5057301;28;20041;-75
2024/01/15 11:52:39;;;;;;;307.98;284.48;;;0.60;99.90;;;;;;5073245;28;20040;-74
2024/01/15 11:55:07;;;;;;;93.80;88.57;;;0.60;99.90;;;;;;5054530;28;20083;-75
2024/01/15 11:57:46;;;;;;;208.40;194.50;;;0.60;99.90;;;;;;5079816;28;20049;-75
2024/01/15 12:00:13;;;;;;;204.98;191.27;;;0.70;99.90;;;;;;5065900;28;20503;-75
2024/01/15 12:02:46;;;;;;;71.03;67.35;;;0.70;99.90;;;;;;5078091;28;20493;-75
2024/01/15 12:05:14;;;;;;;132.07;124.38;;;0.80;99.90;;;;;;5065673;28;20076;-75
2024/01/15 12:07:44;;;;;;;212.73;197.00;;;0.90;99.90;;;;;;5085277;28;20047;-74
2024/01/15 12:10:11;;;;;;;179.90;168.38;;;0.90;99.90;;;;;;5091091;28;20062;-74
2024/01/15 12:12:59;;;;;;;146.80;137.43;;;1.00;99.90;;;;;;5083444;28;20083;-74
2024/01/15 12:15:29;;;;;;;43.65;40.80;;;1.00;99.90;;;;;;5083646;28;20545;-75
2024/01/15 12:18:00;;;;;;;40.40;37.35;;;1.10;99.90;;;;;;5073412;28;20422;-75
2024/01/15 12:20:31;;;;;;;57.78;53.90;;;1.20;99.90;;;;;;5066494;28;20040;-74
2024/01/15 12:22:57;;;;;;;86.47;81.38;;;1.30;99.90;;;;;;5085832;28;20043;-74
2024/01/15 12:25:24;;;;;;;126.20;118.28;;;1.40;99.90;;;;;;5080274;28;20044;-75
2024/01/15 12:27:51;;;;;;;91.32;84.22;;;1.40;99.90;;;;;;5072245;28;20040;-74